Mc Comb/Pike County/John E Lewis Field
KMCB : now visible

Airfield :











YOU CAN JOIN US ON...

 
LOGIN :

Register | Disclaimer

   EN    FR    IT 

 









Legend :    VFR   Marginal VFR   IFR   Intensive IFR   Very Intensive IFR
Visi :
Ceiling :
>= 8 km
>= 3000ft
5 to 8 km
1000 to 3000 ft
1500m to 5 km
500 to 1000 ft
800 to 1500m
200 to 500 ft
< 800m
< 200 ft
Symbols :   Thunderstorms  Fog  Heavy snow  Heavy precipitations  Wind > 20 kt






- Airport Elevation : 413 ft


KMCB - Mc Comb/Pike County/John E Lewis Field

CURRENT METAR :
  • 210453Z AUTO 00000KT 9SM FEW070 13/11 A3005 RMK AO2 SLP171 T01330111

EXPIRED METARs :
  • 210353Z AUTO 00000KT 10SM BKN070 15/11 A3004 RMK AO2 SLP167 T01500106
  • 210253Z AUTO 00000KT 10SM CLR 15/10 A3002 RMK AO2 SLP162 T01500100 51020

TAF KMCB
Valid from the 21 at 00:00 until the 22 at 00:00 UTC


202336Z 2100/2124 27007KT P6SM FEW050
FM210700 34010KT P6SM FEW090
FM211200 36010KT P6SM FEW250
KZHU FIR / North America



MET'MAP, your aeronautical weather chart ! - Copyright ORBIFLY December 2007 - Disclaimer

ORBIFLY MET'MAP TEAM :

Programming & Development : Alexandra Zaïnal
Concept & original design : Baudouin d'Aumeries
Assistance for programming : Marc-Olivier Méhu
Technical & hardware support : Manuel Goepfert

Contact : metmap@orbifly.com




SOURCES & CREDITS :

   NOAA       Earth
Advisory